sensor_id;sensor_type;location;lat;lon;timestamp;pressure;altitude;pressure_sealevel;temperature;humidity
77799;BME280;66989;50.426;15.352;2023-03-01T00:01:00;99458.50;;;-4.40;93.94
77799;BME280;66989;50.426;15.352;2023-03-01T00:03:26;99450.81;;;-4.35;93.65
77799;BME280;66989;50.426;15.352;2023-03-01T00:05:51;99451.69;;;-4.27;93.24
77799;BME280;66989;50.426;15.352;2023-03-01T00:08:16;99443.97;;;-4.22;93.12
77799;BME280;66989;50.426;15.352;2023-03-01T00:10:42;99440.56;;;-4.14;92.87
77799;BME280;66989;50.426;15.352;2023-03-01T00:13:08;99439.72;;;-4.10;92.94
77799;BME280;66989;50.426;15.352;2023-03-01T00:15:33;99435.44;;;-4.09;92.04
77799;BME280;66989;50.426;15.352;2023-03-01T00:18:02;99438.84;;;-4.10;92.29
77799;BME280;66989;50.426;15.352;2023-03-01T00:20:27;99437.13;;;-4.14;92.14
77799;BME280;66989;50.426;15.352;2023-03-01T00:22:53;99432.84;;;-4.20;92.29
77799;BME280;66989;50.426;15.352;2023-03-01T00:25:18;99435.41;;;-4.24;91.71
77799;BME280;66989;50.426;15.352;2023-03-01T00:27:43;99434.53;;;-4.25;91.74
77799;BME280;66989;50.426;15.352;2023-03-01T00:30:10;99432.78;;;-4.26;92.04
77799;BME280;66989;50.426;15.352;2023-03-01T00:32:35;99426.78;;;-4.26;92.05
77799;BME280;66989;50.426;15.352;2023-03-01T00:35:00;99429.38;;;-4.25;92.02
77799;BME280;66989;50.426;15.352;2023-03-01T00:37:26;99429.38;;;-4.25;91.54
77799;BME280;66989;50.426;15.352;2023-03-01T00:39:51;99427.66;;;-4.26;91.37
77799;BME280;66989;50.426;15.352;2023-03-01T00:42:17;99429.38;;;-4.22;90.87
77799;BME280;66989;50.426;15.352;2023-03-01T00:44:42;99427.66;;;-4.23;90.51
77799;BME280;66989;50.426;15.352;2023-03-01T00:47:08;99425.09;;;-4.21;90.83
77799;BME280;66989;50.426;15.352;2023-03-01T00:49:34;99424.22;;;-4.22;90.70
77799;BME280;66989;50.426;15.352;2023-03-01T00:51:59;99418.22;;;-4.28;90.44
77799;BME280;66989;50.426;15.352;2023-03-01T00:54:24;99413.06;;;-4.35;91.21
77799;BME280;66989;50.426;15.352;2023-03-01T00:56:50;99425.91;;;-4.36;91.95
77799;BME280;66989;50.426;15.352;2023-03-01T00:59:15;99422.44;;;-4.47;92.05
77799;BME280;66989;50.426;15.352;2023-03-01T01:01:41;99419.84;;;-4.55;92.20
77799;BME280;66989;50.426;15.352;2023-03-01T01:04:09;99430.13;;;-4.61;92.91
77799;BME280;66989;50.426;15.352;2023-03-01T01:06:41;99429.25;;;-4.63;93.04
77799;BME280;66989;50.426;15.352;2023-03-01T01:09:09;99438.66;;;-4.68;93.18
77799;BME280;66989;50.426;15.352;2023-03-01T01:11:43;99430.94;;;-4.74;93.25
77799;BME280;66989;50.426;15.352;2023-03-01T01:14:08;99430.91;;;-4.79;93.93
77799;BME280;66989;50.426;15.352;2023-03-01T01:16:35;99426.63;;;-4.78;94.23
77799;BME280;66989;50.426;15.352;2023-03-01T01:19:01;99428.34;;;-4.80;94.24
77799;BME280;66989;50.426;15.352;2023-03-01T01:21:26;99427.47;;;-4.81;94.57
77799;BME280;66989;50.426;15.352;2023-03-01T01:23:52;99418.88;;;-4.86;94.48
77799;BME280;66989;50.426;15.352;2023-03-01T01:26:23;99426.56;;;-4.91;94.68
77799;BME280;66989;50.426;15.352;2023-03-01T01:28:50;99427.38;;;-4.98;94.82
77799;BME280;66989;50.426;15.352;2023-03-01T01:31:16;99420.47;;;-5.03;95.38
77799;BME280;66989;50.426;15.352;2023-03-01T01:33:43;99423.03;;;-5.11;95.58
77799;BME280;66989;50.426;15.352;2023-03-01T01:36:09;99419.56;;;-5.18;96.22
77799;BME280;66989;50.426;15.352;2023-03-01T01:38:36;99422.97;;;-5.19;96.26
77799;BME280;66989;50.426;15.352;2023-03-01T01:41:02;99422.97;;;-5.19;96.66
77799;BME280;66989;50.426;15.352;2023-03-01T01:43:33;99429.81;;;-5.19;97.09
77799;BME280;66989;50.426;15.352;2023-03-01T01:46:01;99424.69;;;-5.21;97.05
77799;BME280;66989;50.426;15.352;2023-03-01T01:48:55;99417.81;;;-5.23;97.19
77799;BME280;66989;50.426;15.352;2023-03-01T01:51:25;99414.38;;;-5.24;97.20
77799;BME280;66989;50.426;15.352;2023-03-01T01:53:58;99404.94;;;-5.25;97.22
77799;BME280;66989;50.426;15.352;2023-03-01T01:56:25;99391.25;;;-5.27;97.88
77799;BME280;66989;50.426;15.352;2023-03-01T01:58:52;99402.34;;;-5.32;96.95
77799;BME280;66989;50.426;15.352;2023-03-01T02:01:19;99397.13;;;-5.40;97.24
77799;BME280;66989;50.426;15.352;2023-03-01T02:03:46;99395.41;;;-5.47;97.18
77799;BME280;66989;50.426;15.352;2023-03-01T02:06:17;99395.34;;;-5.53;97.74
77799;BME280;66989;50.426;15.352;2023-03-01T02:08:46;99397.91;;;-5.56;97.96
77799;BME280;66989;50.426;15.352;2023-03-01T02:11:13;99393.63;;;-5.57;98.54
77799;BME280;66989;50.426;15.352;2023-03-01T02:13:40;99396.19;;;-5.57;98.57
77799;BME280;66989;50.426;15.352;2023-03-01T02:16:11;99386.78;;;-5.54;99.19
77799;BME280;66989;50.426;15.352;2023-03-01T02:18:40;99389.38;;;-5.52;99.27
77799;BME280;66989;50.426;15.352;2023-03-01T02:24:19;99382.50;;;-5.50;99.10
77799;BME280;66989;50.426;15.352;2023-03-01T02:26:52;99391.91;;;-5.55;99.84
77799;BME280;66989;50.426;15.352;2023-03-01T02:29:18;99391.03;;;-5.57;99.53
77799;BME280;66989;50.426;15.352;2023-03-01T02:31:44;99395.28;;;-5.63;99.32
77799;BME280;66989;50.426;15.352;2023-03-01T02:34:22;99401.28;;;-5.64;99.67
77799;BME280;66989;50.426;15.352;2023-03-01T02:36:49;99397.00;;;-5.65;99.31
77799;BME280;66989;50.426;15.352;2023-03-01T02:39:25;99399.53;;;-5.66;99.56
77799;BME280;66989;50.426;15.352;2023-03-01T02:41:53;99397.81;;;-5.69;100.00
77799;BME280;66989;50.426;15.352;2023-03-01T02:44:20;99395.22;;;-5.70;99.67
77799;BME280;66989;50.426;15.352;2023-03-01T02:46:52;99387.53;;;-5.69;99.71
77799;BME280;66989;50.426;15.352;2023-03-01T02:49:26;99384.97;;;-5.69;100.00
77799;BME280;66989;50.426;15.352;2023-03-01T02:52:04;99385.00;;;-5.64;100.00
77799;BME280;66989;50.426;15.352;2023-03-01T02:54:39;99373.91;;;-5.58;100.00
77799;BME280;66989;50.426;15.352;2023-03-01T02:57:05;99370.50;;;-5.57;99.82
77799;BME280;66989;50.426;15.352;2023-03-01T02:59:34;99380.81;;;-5.54;99.73
77799;BME280;66989;50.426;15.352;2023-03-01T03:02:05;99371.44;;;-5.43;100.00
77799;BME280;66989;50.426;15.352;2023-03-01T03:04:30;99371.44;;;-5.40;99.99
77799;BME280;66989;50.426;15.352;2023-03-01T03:06:55;99379.16;;;-5.40;99.51
77799;BME280;66989;50.426;15.352;2023-03-01T03:09:21;99371.47;;;-5.39;99.28
77799;BME280;66989;50.426;15.352;2023-03-01T03:11:46;99368.94;;;-5.32;99.43
77799;BME280;66989;50.426;15.352;2023-03-01T03:14:15;99367.25;;;-5.26;98.51
77799;BME280;66989;50.426;15.352;2023-03-01T03:16:46;99366.41;;;-5.19;98.34
77799;BME280;66989;50.426;15.352;2023-03-01T03:19:12;99351.88;;;-5.14;98.31
77799;BME280;66989;50.426;15.352;2023-03-01T03:21:38;99351.91;;;-5.11;97.64
77799;BME280;66989;50.426;15.352;2023-03-01T03:24:04;99355.31;;;-5.10;96.88
77799;BME280;66989;50.426;15.352;2023-03-01T03:26:30;99357.91;;;-5.12;96.61
77799;BME280;66989;50.426;15.352;2023-03-01T03:28:55;99357.06;;;-5.07;96.49
77799;BME280;66989;50.426;15.352;2023-03-01T03:31:22;99359.63;;;-5.04;95.55
77799;BME280;66989;50.426;15.352;2023-03-01T03:33:47;99350.25;;;-5.02;94.85
77799;BME280;66989;50.426;15.352;2023-03-01T03:36:17;99345.06;;;-5.05;95.02
77799;BME280;66989;50.426;15.352;2023-03-01T03:38:44;99342.47;;;-5.10;94.64
77799;BME280;66989;50.426;15.352;2023-03-01T03:41:11;99336.47;;;-5.17;94.57
77799;BME280;66989;50.426;15.352;2023-03-01T03:43:39;99338.16;;;-5.22;94.17
77799;BME280;66989;50.426;15.352;2023-03-01T03:46:05;99326.13;;;-5.26;94.28
77799;BME280;66989;50.426;15.352;2023-03-01T03:48:33;99320.94;;;-5.35;94.42
77799;BME280;66989;50.426;15.352;2023-03-01T03:50:59;99327.75;;;-5.40;94.07
77799;BME280;66989;50.426;15.352;2023-03-01T03:53:26;99332.91;;;-5.43;94.62
77799;BME280;66989;50.426;15.352;2023-03-01T03:55:52;99322.59;;;-5.49;94.78
77799;BME280;66989;50.426;15.352;2023-03-01T03:58:19;99318.25;;;-5.56;94.67
77799;BME280;66989;50.426;15.352;2023-03-01T04:00:46;99319.94;;;-5.65;95.32
77799;BME280;66989;50.426;15.352;2023-03-01T04:03:13;99327.56;;;-5.71;95.19
77799;BME280;66989;50.426;15.352;2023-03-01T04:05:40;99323.31;;;-5.75;95.60
77799;BME280;66989;50.426;15.352;2023-03-01T04:08:06;99325.00;;;-5.74;96.01
77799;BME280;66989;50.426;15.352;2023-03-01T04:10:53;99328.44;;;-5.72;96.34
77799;BME280;66989;50.426;15.352;2023-03-01T04:13:22;99326.72;;;-5.71;95.82
77799;BME280;66989;50.426;15.352;2023-03-01T04:15:49;99333.59;;;-5.67;95.92
77799;BME280;66989;50.426;15.352;2023-03-01T04:18:16;99331.00;;;-5.75;96.04
77799;BME280;66989;50.426;15.352;2023-03-01T04:20:43;99335.25;;;-5.78;96.55
77799;BME280;66989;50.426;15.352;2023-03-01T04:28:25;99325.78;;;-5.85;96.16
77799;BME280;66989;50.426;15.352;2023-03-01T04:30:51;99325.78;;;-5.85;96.36
77799;BME280;66989;50.426;15.352;2023-03-01T04:33:17;99330.94;;;-5.81;96.31
77799;BME280;66989;50.426;15.352;2023-03-01T04:35:43;99334.34;;;-5.85;96.32
77799;BME280;66989;50.426;15.352;2023-03-01T04:38:09;99330.03;;;-5.86;96.34
77799;BME280;66989;50.426;15.352;2023-03-01T04:40:35;99328.38;;;-5.84;96.55
77799;BME280;66989;50.426;15.352;2023-03-01T04:43:00;99331.75;;;-5.87;96.14
77799;BME280;66989;50.426;15.352;2023-03-01T04:45:26;99324.91;;;-5.91;96.34
77799;BME280;66989;50.426;15.352;2023-03-01T04:47:53;99329.16;;;-5.91;96.70
77799;BME280;66989;50.426;15.352;2023-03-01T04:50:19;99330.03;;;-5.89;96.19
77799;BME280;66989;50.426;15.352;2023-03-01T04:52:49;99332.59;;;-5.86;96.11
77799;BME280;66989;50.426;15.352;2023-03-01T04:55:14;99336.06;;;-5.84;96.50
77799;BME280;66989;50.426;15.352;2023-03-01T04:57:40;99339.50;;;-5.82;96.68
77799;BME280;66989;50.426;15.352;2023-03-01T05:00:08;99341.22;;;-5.82;96.53
77799;BME280;66989;50.426;15.352;2023-03-01T05:02:56;99336.94;;;-5.82;96.83
77799;BME280;66989;50.426;15.352;2023-03-01T05:05:23;99341.22;;;-5.84;96.85
77799;BME280;66989;50.426;15.352;2023-03-01T05:07:51;99336.94;;;-5.82;96.59
77799;BME280;66989;50.426;15.352;2023-03-01T05:10:17;99339.50;;;-5.80;96.29
77799;BME280;66989;50.426;15.352;2023-03-01T05:12:42;99341.25;;;-5.78;95.98
77799;BME280;66989;50.426;15.352;2023-03-01T05:15:08;99340.38;;;-5.75;96.24
77799;BME280;66989;50.426;15.352;2023-03-01T05:17:34;99337.00;;;-5.73;96.26
77799;BME280;66989;50.426;15.352;2023-03-01T05:19:59;99338.75;;;-5.69;95.93
77799;BME280;66989;50.426;15.352;2023-03-01T05:22:26;99339.63;;;-5.61;96.08
77799;BME280;66989;50.426;15.352;2023-03-01T05:24:51;99348.19;;;-5.60;95.79
77799;BME280;66989;50.426;15.352;2023-03-01T05:27:17;99341.38;;;-5.58;96.13
77799;BME280;66989;50.426;15.352;2023-03-01T05:29:43;99338.78;;;-5.61;95.29
77799;BME280;66989;50.426;15.352;2023-03-01T05:32:08;99331.91;;;-5.65;94.55
77799;BME280;66989;50.426;15.352;2023-03-01T05:34:36;99339.59;;;-5.65;94.86
77799;BME280;66989;50.426;15.352;2023-03-01T05:37:02;99337.06;;;-5.64;95.41
77799;BME280;66989;50.426;15.352;2023-03-01T05:39:29;99337.09;;;-5.59;95.13
77799;BME280;66989;50.426;15.352;2023-03-01T05:41:57;99337.06;;;-5.62;95.32
77799;BME280;66989;50.426;15.352;2023-03-01T05:44:23;99338.78;;;-5.64;94.76
77799;BME280;66989;50.426;15.352;2023-03-01T05:46:49;99338.75;;;-5.66;94.63
77799;BME280;66989;50.426;15.352;2023-03-01T05:49:15;99343.06;;;-5.63;94.93
77799;BME280;66989;50.426;15.352;2023-03-01T05:51:42;99343.06;;;-5.65;94.88
77799;BME280;66989;50.426;15.352;2023-03-01T05:54:09;99349.06;;;-5.64;94.70
77799;BME280;66989;50.426;15.352;2023-03-01T05:56:36;99354.22;;;-5.59;94.64
77799;BME280;66989;50.426;15.352;2023-03-01T05:59:03;99361.94;;;-5.58;94.39
77799;BME280;66989;50.426;15.352;2023-03-01T06:01:30;99361.97;;;-5.53;94.75
77799;BME280;66989;50.426;15.352;2023-03-01T06:03:55;99353.41;;;-5.51;94.67
77799;BME280;66989;50.426;15.352;2023-03-01T06:06:22;99358.56;;;-5.45;94.20
77799;BME280;66989;50.426;15.352;2023-03-01T06:08:47;99364.66;;;-5.33;94.12
77799;BME280;66989;50.426;15.352;2023-03-01T06:11:12;99356.09;;;-5.25;94.23
77799;BME280;66989;50.426;15.352;2023-03-01T06:13:38;99356.16;;;-5.17;93.68
77799;BME280;66989;50.426;15.352;2023-03-01T06:16:05;99357.03;;;-5.11;93.62
77799;BME280;66989;50.426;15.352;2023-03-01T06:18:33;99353.63;;;-5.06;93.03
77799;BME280;66989;50.426;15.352;2023-03-01T06:20:59;99359.66;;;-5.01;93.23
77799;BME280;66989;50.426;15.352;2023-03-01T06:23:24;99353.69;;;-4.94;93.19
77799;BME280;66989;50.426;15.352;2023-03-01T06:25:50;99355.44;;;-4.87;92.64
77799;BME280;66989;50.426;15.352;2023-03-01T06:28:15;99358.88;;;-4.79;93.15
77799;BME280;66989;50.426;15.352;2023-03-01T06:30:41;99359.78;;;-4.71;93.01
77799;BME280;66989;50.426;15.352;2023-03-01T06:33:06;99356.38;;;-4.61;93.17
77799;BME280;66989;50.426;15.352;2023-03-01T06:35:38;99353.81;;;-4.50;92.57
77799;BME280;66989;50.426;15.352;2023-03-01T06:38:04;99351.25;;;-4.38;92.37
77799;BME280;66989;50.426;15.352;2023-03-01T06:40:31;99349.59;;;-4.25;91.83
77799;BME280;66989;50.426;15.352;2023-03-01T06:42:56;99340.97;;;-4.10;91.59
77799;BME280;66989;50.426;15.352;2023-03-01T06:45:22;99353.00;;;-3.88;90.91
77799;BME280;66989;50.426;15.352;2023-03-01T06:47:48;99343.53;;;-3.67;90.05
77799;BME280;66989;50.426;15.352;2023-03-01T06:50:14;99335.72;;;-3.40;89.52
77799;BME280;66989;50.426;15.352;2023-03-01T06:52:40;99335.47;;;-2.76;88.46
77799;BME280;66989;50.426;15.352;2023-03-01T06:55:06;99334.91;;;-1.88;85.70
77799;BME280;66989;50.426;15.352;2023-03-01T06:57:31;99338.25;;;-0.96;81.31
77799;BME280;66989;50.426;15.352;2023-03-01T06:59:57;99332.75;;;-0.08;76.69
77799;BME280;66989;50.426;15.352;2023-03-01T07:02:22;99334.06;;;0.67;72.16
77799;BME280;66989;50.426;15.352;2023-03-01T07:04:51;99325.78;;;1.35;69.75
77799;BME280;66989;50.426;15.352;2023-03-01T07:07:18;99320.31;;;1.86;67.41
77799;BME280;66989;50.426;15.352;2023-03-01T07:09:44;99325.31;;;2.63;64.99
77799;BME280;66989;50.426;15.352;2023-03-01T07:12:10;99316.09;;;3.14;61.43
77799;BME280;66989;50.426;15.352;2023-03-01T07:14:39;99323.44;;;3.88;60.22
77799;BME280;66989;50.426;15.352;2023-03-01T07:17:05;99309.84;;;4.31;58.34
77799;BME280;66989;50.426;15.352;2023-03-01T07:19:30;99303.47;;;5.13;57.21
77799;BME280;66989;50.426;15.352;2023-03-01T07:22:11;99309.66;;;5.58;55.23
77799;BME280;66989;50.426;15.352;2023-03-01T07:24:37;99295.97;;;6.37;54.00
77799;BME280;66989;50.426;15.352;2023-03-01T07:27:03;99292.56;;;6.96;51.61
77799;BME280;66989;50.426;15.352;2023-03-01T07:29:29;99295.25;;;7.14;50.21
77799;BME280;66989;50.426;15.352;2023-03-01T07:31:54;99286.50;;;7.89;48.93
77799;BME280;66989;50.426;15.352;2023-03-01T07:34:20;99286.75;;;7.84;47.56
77799;BME280;66989;50.426;15.352;2023-03-01T07:36:45;99280.63;;;8.20;47.50
77799;BME280;66989;50.426;15.352;2023-03-01T07:39:12;99273.09;;;8.48;45.61
77799;BME280;66989;50.426;15.352;2023-03-01T07:41:37;99262.31;;;8.88;44.68
77799;BME280;66989;50.426;15.352;2023-03-01T07:44:03;99267.28;;;8.92;44.11
77799;BME280;66989;50.426;15.352;2023-03-01T07:46:28;99266.41;;;9.09;44.11
77799;BME280;66989;50.426;15.352;2023-03-01T07:48:55;99270.63;;;9.45;43.01
77799;BME280;66989;50.426;15.352;2023-03-01T07:51:20;99266.31;;;10.05;41.16
77799;BME280;66989;50.426;15.352;2023-03-01T07:53:46;99256.66;;;10.80;41.09
77799;BME280;66989;50.426;15.352;2023-03-01T07:56:14;99260.53;;;11.03;39.62
77799;BME280;66989;50.426;15.352;2023-03-01T07:58:41;99264.22;;;11.01;38.68
77799;BME280;66989;50.426;15.352;2023-03-01T08:01:09;99258.13;;;11.56;37.53
77799;BME280;66989;50.426;15.352;2023-03-01T08:03:38;99256.25;;;12.39;36.67
77799;BME280;66989;50.426;15.352;2023-03-01T08:06:05;99254.59;;;13.14;35.16
77799;BME280;66989;50.426;15.352;2023-03-01T08:08:36;99247.75;;;13.48;33.16
77799;BME280;66989;50.426;15.352;2023-03-01T08:11:04;99249.97;;;13.55;32.40
77799;BME280;66989;50.426;15.352;2023-03-01T08:13:30;99246.59;;;14.24;32.52
77799;BME280;66989;50.426;15.352;2023-03-01T08:18:28;99243.53;;;14.88;29.93
77799;BME280;66989;50.426;15.352;2023-03-01T08:20:54;99246.53;;;14.26;30.69
77799;BME280;66989;50.426;15.352;2023-03-01T08:23:19;99246.72;;;14.47;30.10
77799;BME280;66989;50.426;15.352;2023-03-01T08:25:44;99242.09;;;14.95;30.07
77799;BME280;66989;50.426;15.352;2023-03-01T08:28:10;99232.34;;;15.41;28.88
77799;BME280;66989;50.426;15.352;2023-03-01T08:30:39;99233.44;;;15.49;28.96
77799;BME280;66989;50.426;15.352;2023-03-01T08:33:04;99219.63;;;16.52;28.09
77799;BME280;66989;50.426;15.352;2023-03-01T08:35:31;99211.16;;;16.79;27.21
77799;BME280;66989;50.426;15.352;2023-03-01T08:37:56;99208.88;;;17.45;26.12
77799;BME280;66989;50.426;15.352;2023-03-01T08:40:22;99199.13;;;16.84;25.73
77799;BME280;66989;50.426;15.352;2023-03-01T08:42:47;99203.19;;;16.68;26.45
77799;BME280;66989;50.426;15.352;2023-03-01T08:45:12;99199.47;;;17.41;26.36
77799;BME280;66989;50.426;15.352;2023-03-01T08:47:39;99203.25;;;17.38;25.55
77799;BME280;66989;50.426;15.352;2023-03-01T08:50:05;99197.72;;;17.21;25.66
77799;BME280;66989;50.426;15.352;2023-03-01T08:52:32;99194.78;;;17.64;25.73
77799;BME280;66989;50.426;15.352;2023-03-01T08:54:57;99198.28;;;16.84;25.88
77799;BME280;66989;50.426;15.352;2023-03-01T08:57:23;99196.81;;;15.85;25.92
77799;BME280;66989;50.426;15.352;2023-03-01T08:59:48;99197.56;;;14.88;27.51
77799;BME280;66989;50.426;15.352;2023-03-01T09:02:16;99198.78;;;14.37;28.59
77799;BME280;66989;50.426;15.352;2023-03-01T09:04:43;99201.34;;;14.50;28.72
77799;BME280;66989;50.426;15.352;2023-03-01T09:07:09;99195.66;;;14.43;28.66
77799;BME280;66989;50.426;15.352;2023-03-01T09:09:35;99202.53;;;13.39;30.45
77799;BME280;66989;50.426;15.352;2023-03-01T09:12:01;99204.16;;;13.16;30.08
77799;BME280;66989;50.426;15.352;2023-03-01T09:14:26;99198.59;;;12.04;31.67
77799;BME280;66989;50.426;15.352;2023-03-01T09:16:52;99200.06;;;12.48;31.87
77799;BME280;66989;50.426;15.352;2023-03-01T09:19:18;99196.59;;;13.35;30.07
77799;BME280;66989;50.426;15.352;2023-03-01T09:21:43;99192.38;;;14.40;29.14
77799;BME280;66989;50.426;15.352;2023-03-01T09:24:20;99191.25;;;15.45;27.32
77799;BME280;66989;50.426;15.352;2023-03-01T09:26:46;99175.75;;;17.38;25.37
77799;BME280;66989;50.426;15.352;2023-03-01T09:29:13;99173.50;;;19.16;23.22
77799;BME280;66989;50.426;15.352;2023-03-01T09:31:39;99171.34;;;19.29;22.16
77799;BME280;66989;50.426;15.352;2023-03-01T09:34:05;99172.47;;;19.72;22.01
77799;BME280;66989;50.426;15.352;2023-03-01T09:36:31;99166.72;;;19.49;22.13
77799;BME280;66989;50.426;15.352;2023-03-01T09:38:57;99164.59;;;18.12;23.94
77799;BME280;66989;50.426;15.352;2023-03-01T09:41:50;99161.19;;;16.71;25.51
77799;BME280;66989;50.426;15.352;2023-03-01T09:47:00;99167.16;;;17.34;25.56
77799;BME280;66989;50.426;15.352;2023-03-01T09:49:33;99168.50;;;16.48;26.21
77799;BME280;66989;50.426;15.352;2023-03-01T09:54:36;99176.28;;;15.33;27.19
77799;BME280;66989;50.426;15.352;2023-03-01T09:57:14;99177.34;;;15.52;27.97
77799;BME280;66989;50.426;15.352;2023-03-01T09:59:50;99167.31;;;15.88;27.37
77799;BME280;66989;50.426;15.352;2023-03-01T10:04:50;99162.88;;;16.72;25.37
77799;BME280;66989;50.426;15.352;2023-03-01T10:10:07;99163.03;;;17.11;25.65
77799;BME280;66989;50.426;15.352;2023-03-01T10:12:36;99168.63;;;17.08;25.71
77799;BME280;66989;50.426;15.352;2023-03-01T10:17:41;99174.00;;;15.06;29.00
77799;BME280;66989;50.426;15.352;2023-03-01T10:20:28;99166.50;;;16.71;27.12
77799;BME280;66989;50.426;15.352;2023-03-01T10:22:55;99162.97;;;17.32;25.14
77799;BME280;66989;50.426;15.352;2023-03-01T10:25:52;99167.63;;;15.63;27.24
77799;BME280;66989;50.426;15.352;2023-03-01T10:31:13;99156.50;;;15.69;27.81
77799;BME280;66989;50.426;15.352;2023-03-01T10:33:40;99152.56;;;16.16;27.16
77799;BME280;66989;50.426;15.352;2023-03-01T10:36:06;99145.34;;;16.70;26.53
77799;BME280;66989;50.426;15.352;2023-03-01T10:38:53;99143.72;;;17.28;25.07
77799;BME280;66989;50.426;15.352;2023-03-01T10:41:21;99140.19;;;19.10;23.55
77799;BME280;66989;50.426;15.352;2023-03-01T10:43:54;99126.28;;;21.02;21.71
77799;BME280;66989;50.426;15.352;2023-03-01T10:46:34;99132.91;;;19.03;22.83
77799;BME280;66989;50.426;15.352;2023-03-01T10:49:20;99130.22;;;17.89;24.63
77799;BME280;66989;50.426;15.352;2023-03-01T10:51:49;99126.84;;;17.97;23.95
77799;BME280;66989;50.426;15.352;2023-03-01T10:54:35;99126.66;;;17.41;24.83
77799;BME280;66989;50.426;15.352;2023-03-01T10:57:04;99118.41;;;16.21;26.45
77799;BME280;66989;50.426;15.352;2023-03-01T10:59:36;99124.16;;;15.85;26.96
77799;BME280;66989;50.426;15.352;2023-03-01T11:02:26;99113.88;;;16.84;25.65
77799;BME280;66989;50.426;15.352;2023-03-01T11:05:23;99118.16;;;16.03;26.54
77799;BME280;66989;50.426;15.352;2023-03-01T11:07:58;99132.59;;;14.58;28.30
77799;BME280;66989;50.426;15.352;2023-03-01T11:10:33;99116.75;;;15.35;27.73
77799;BME280;66989;50.426;15.352;2023-03-01T11:13:29;99098.34;;;17.98;24.22
77799;BME280;66989;50.426;15.352;2023-03-01T11:16:10;99089.06;;;19.41;22.60
77799;BME280;66989;50.426;15.352;2023-03-01T11:18:37;99094.06;;;18.81;23.96
77799;BME280;66989;50.426;15.352;2023-03-01T11:21:03;99098.78;;;17.04;25.21
77799;BME280;66989;50.426;15.352;2023-03-01T11:23:30;99094.06;;;16.77;25.92
77799;BME280;66989;50.426;15.352;2023-03-01T11:26:01;99089.91;;;17.73;24.44
77799;BME280;66989;50.426;15.352;2023-03-01T11:28:30;99088.00;;;18.32;23.42
77799;BME280;66989;50.426;15.352;2023-03-01T11:31:10;99092.53;;;17.34;24.34
77799;BME280;66989;50.426;15.352;2023-03-01T11:34:02;99096.63;;;16.27;25.78
77799;BME280;66989;50.426;15.352;2023-03-01T11:36:42;99094.88;;;15.64;26.83
77799;BME280;66989;50.426;15.352;2023-03-01T11:39:34;99082.19;;;16.30;26.76
77799;BME280;66989;50.426;15.352;2023-03-01T11:42:11;99063.31;;;19.22;23.58
77799;BME280;66989;50.426;15.352;2023-03-01T11:44:40;99044.44;;;21.56;21.07
77799;BME280;66989;50.426;15.352;2023-03-01T11:47:43;99030.56;;;23.81;18.78
77799;BME280;66989;50.426;15.352;2023-03-01T11:50:29;99028.19;;;24.54;17.58
77799;BME280;66989;50.426;15.352;2023-03-01T11:53:09;99032.81;;;24.45;17.01
77799;BME280;66989;50.426;15.352;2023-03-01T11:59:01;99017.81;;;25.81;16.49
77799;BME280;66989;50.426;15.352;2023-03-01T12:02:10;99023.34;;;25.15;16.17
77799;BME280;66989;50.426;15.352;2023-03-01T12:05:06;99015.22;;;25.30;16.73
77799;BME280;66989;50.426;15.352;2023-03-01T12:10:42;99010.59;;;27.40;14.94
77799;BME280;66989;50.426;15.352;2023-03-01T12:21:40;99026.94;;;22.42;18.04
77799;BME280;66989;50.426;15.352;2023-03-01T12:24:20;99026.75;;;21.05;20.08
77799;BME280;66989;50.426;15.352;2023-03-01T12:27:04;99032.53;;;19.98;21.60
77799;BME280;66989;50.426;15.352;2023-03-01T12:29:46;99027.09;;;20.33;21.94
77799;BME280;66989;50.426;15.352;2023-03-01T12:50:02;98991.50;;;23.08;17.80
77799;BME280;66989;50.426;15.352;2023-03-01T12:52:58;99000.72;;;22.36;18.69
77799;BME280;66989;50.426;15.352;2023-03-01T12:55:39;98996.19;;;20.89;19.69
77799;BME280;66989;50.426;15.352;2023-03-01T13:06:46;98983.28;;;23.94;18.03
77799;BME280;66989;50.426;15.352;2023-03-01T13:11:42;98953.88;;;25.45;16.65
77799;BME280;66989;50.426;15.352;2023-03-01T13:16:52;98972.81;;;23.15;17.63
77799;BME280;66989;50.426;15.352;2023-03-01T13:19:22;98975.34;;;22.46;18.27
77799;BME280;66989;50.426;15.352;2023-03-01T13:21:51;98971.47;;;21.52;18.89
77799;BME280;66989;50.426;15.352;2023-03-01T13:24:40;98971.13;;;21.56;19.03
77799;BME280;66989;50.426;15.352;2023-03-01T13:34:47;98961.00;;;20.84;19.88
77799;BME280;66989;50.426;15.352;2023-03-01T13:37:27;98965.41;;;19.29;21.52
77799;BME280;66989;50.426;15.352;2023-03-01T13:39:56;98962.41;;;20.20;20.51
77799;BME280;66989;50.426;15.352;2023-03-01T13:42:41;98954.75;;;19.55;20.80
77799;BME280;66989;50.426;15.352;2023-03-01T13:45:38;98951.91;;;19.13;22.09
77799;BME280;66989;50.426;15.352;2023-03-01T13:48:11;98951.47;;;19.61;21.62
77799;BME280;66989;50.426;15.352;2023-03-01T13:50:48;98950.06;;;18.50;22.99
77799;BME280;66989;50.426;15.352;2023-03-01T13:53:25;98952.63;;;18.42;23.09
77799;BME280;66989;50.426;15.352;2023-03-01T13:55:55;98941.94;;;17.77;23.48
77799;BME280;66989;50.426;15.352;2023-03-01T13:58:23;98950.22;;;17.55;24.03
77799;BME280;66989;50.426;15.352;2023-03-01T14:00:58;98949.41;;;16.77;25.31
77799;BME280;66989;50.426;15.352;2023-03-01T14:03:24;98942.59;;;18.26;23.03
77799;BME280;66989;50.426;15.352;2023-03-01T14:06:00;98943.09;;;17.46;23.52
77799;BME280;66989;50.426;15.352;2023-03-01T14:08:28;98950.53;;;16.34;25.65
77799;BME280;66989;50.426;15.352;2023-03-01T14:19:37;98947.56;;;15.66;26.64
77799;BME280;66989;50.426;15.352;2023-03-01T14:22:23;98947.25;;;16.11;26.29
77799;BME280;66989;50.426;15.352;2023-03-01T14:24:52;98941.38;;;16.67;25.28
77799;BME280;66989;50.426;15.352;2023-03-01T14:27:20;98936.38;;;16.83;25.42
77799;BME280;66989;50.426;15.352;2023-03-01T14:29:55;98930.25;;;16.43;26.85
77799;BME280;66989;50.426;15.352;2023-03-01T14:32:25;98937.97;;;15.01;28.39